Latest Weather Observations for Orange Airport

IDN60801

Issued at 2:04 am EST Thursday 30 June 2016 (issued every 30 minutes, with the page automatically refreshed every 10 minutes)

About weather observations | Map of weather stations | Latest weather observations for NSW | Other Formats
Station Details ID: 063303 Name: ORANGE AIRPORT AWS Lat: -33.38 Lon: 149.13 Height: 944.65 m
Data from the previous 72 hours. | See also: Recent months at Orange Airport
Date/Time
EST
Temp
°C
App
Temp
°C
Dew
Point
°C
Rel
Hum
%
Delta-T
°C
Wind Press
QNH
hPa
Press
MSL
hPa
Rain since
9am
mm
Dir  Spd
km/h
Gust
km/h
Spd
kts
Gust
kts
30/02:00am 0.3 -2.9 -0.7 93 0.4 NNE 6 7 3 4 1022.4 1023.2 -
30/01:43am 0.1 -3.3 -0.9 93 0.4 N 7 9 4 5 1022.5 1023.3 -
30/01:30am 0.3 -3.1 -0.7 93 0.4 N 7 9 4 5 1022.9 1023.7 -
30/01:07am 0.2 -3.2 -0.8 93 0.4 N 7 9 4 5 1023.0 1023.8 -
30/01:00am 0.3 -3.1 -0.7 93 0.4 N 7 9 4 5 1023.0 1023.8 -
30/12:41am 1.9 -2.0 0.9 93 0.4 N 11 11 6 6 1023.3 1024.1 -
30/12:30am 1.8 -2.2 0.8 93 0.4 N 11 11 6 6 1023.4 1024.2 -
30/12:00am 1.1 -2.0 0.1 93 0.4 N 6 7 3 4 1024.0 1024.8 -
 
Date/Time
EST
Temp
°C
App
Temp
°C
Dew
Point
°C
Rel
Hum
%
Delta-T
°C
Wind Press
QNH
hPa
Press
MSL
hPa
Rain since
9am
mm
Dir  Spd
km/h
Gust
km/h
Spd
kts
Gust
kts
29/11:34pm 0.9 -2.8 -0.1 93 0.4 N 9 11 5 6 1024.2 1025.0 -
29/11:30pm 1.7 -1.9 0.7 93 0.4 NNW 9 11 5 6 1024.2 1025.0 -
29/11:10pm 2.3 -1.6 1.3 93 0.4 N 11 13 6 7 1024.4 1025.2 -
29/11:00pm 1.8 -2.5 0.8 93 0.4 N 13 13 7 7 1024.3 1025.1 -
29/10:53pm 0.5 -4.0 -0.5 93 0.4 N 13 13 7 7 1024.4 1025.2 -
29/10:30pm 0.6 -1.4 -0.4 93 0.4 CALM 0 0 0 0 1024.5 1025.3 -
29/10:23pm 0.4 -1.7 -0.6 93 0.4 CALM 0 0 0 0 1024.6 1025.5 -
29/10:00pm 0.0 -2.1 -1.0 93 0.4 CALM 0 0 0 0 1024.7 1025.6 -
29/09:30pm 0.5 -1.6 -0.5 93 0.4 CALM 0 0 0 0 1024.8 1025.7 -
29/09:00pm 0.8 -1.2 -0.2 93 0.4 CALM 0 0 0 0 1025.0 1025.8 0.0
29/08:30pm 1.3 -1.8 0.3 93 0.4 ENE 6 7 3 4 1025.2 1026.0 -
29/08:22pm 1.3 -2.0 0.3 93 0.4 NNW 7 7 4 4 1025.2 1026.0 -
29/08:00pm 1.5 -0.8 0.5 93 0.4 W 2 7 1 4 1025.4 1026.2 -
29/07:48pm 1.6 -0.3 0.6 93 0.4 CALM 0 0 0 0 1025.5 1026.4 -
29/07:30pm 2.4 0.6 1.4 93 0.4 CALM 0 0 0 0 1025.6 1026.5 -
29/07:00pm 3.3 1.7 2.3 93 0.4 CALM 0 0 0 0 1025.5 1026.4 -
29/06:55pm 3.0 1.3 2.0 93 0.4 CALM 0 0 0 0 1025.5 1026.4 -
29/06:30pm 3.3 1.3 2.1 92 0.5 W 2 6 1 3 1025.6 1026.5 -
29/06:00pm 5.1 3.7 3.4 89 0.7 CALM 0 0 0 0 1025.4 1026.2 -
29/05:30pm 6.9 4.8 3.9 81 1.4 N 4 7 2 4 1025.3 1026.1 -
29/05:00pm 7.7 4.4 2.4 69 2.3 N 9 11 5 6 1025.2 1026.0 -
29/04:30pm 10.0 6.6 1.6 56 3.7 N 9 13 5 7 1025.2 1026.0 -
29/04:00pm 11.2 8.0 0.9 49 4.5 N 7 11 4 6 1025.3 1026.1 -
29/03:30pm 11.9 9.1 -0.3 43 5.3 NNE 4 9 2 5 1025.4 1026.2 -
29/03:00pm 11.7 8.6 -0.1 44 5.1 N 6 9 3 5 1025.5 1026.4 -
29/02:30pm 11.4 7.6 -0.7 43 5.1 N 9 11 5 6 1025.4 1026.2 -
29/02:00pm 12.0 9.5 1.3 48 4.8 NNW 4 9 2 5 1025.5 1026.4 -
29/01:30pm 11.8 8.8 1.7 50 4.5 N 7 13 4 7 1025.7 1026.6 -
29/01:00pm 11.1 7.9 0.5 48 4.6 NNE 7 11 4 6 1025.9 1026.8 -
29/12:30pm 10.5 7.4 1.3 53 4.1 E 7 13 4 7 1026.4 1027.3 -
29/12:00pm 9.6 6.3 2.2 60 3.3 E 9 13 5 7 1026.8 1027.7 -
29/11:30am 8.6 5.7 2.8 67 2.6 SE 7 13 4 7 1027.4 1028.3 -
29/11:00am 7.7 4.6 3.6 75 1.8 S 9 15 5 8 1027.9 1028.8 0.2
29/10:30am 7.1 3.6 3.3 77 1.7 S 11 15 6 8 1028.1 1029.0 0.2
29/10:00am 6.4 3.3 3.4 81 1.3 S 9 15 5 8 1028.4 1029.3 0.0
29/09:30am 5.8 2.2 3.0 82 1.2 S 11 17 6 9 1028.1 1029.0 0.0
29/09:00am 4.3 0.0 3.0 91 0.6 S 15 19 8 10 1028.0 1028.9 0.0
29/08:30am 2.8 -0.6 1.8 93 0.4 SSW 9 11 5 6 1027.8 1028.7 0.0
29/08:00am 0.6 -2.8 -0.4 93 0.4 S 7 7 4 4 1027.8 1028.7 0.0
29/07:30am -0.6 -4.5 -1.6 93 0.3 SSW 9 11 5 6 1027.5 1028.4 0.0
29/07:00am -0.1 -3.6 -1.1 93 0.4 S 7 9 4 5 1027.4 1028.3 0.0
29/06:30am 1.5 -2.5 0.5 93 0.4 SSW 11 15 6 8 1027.1 1028.0 0.0
29/06:00am 1.4 -3.0 0.4 93 0.4 S 13 17 7 9 1026.9 1027.8 0.0
29/05:30am 2.3 -3.1 1.3 93 0.4 SSW 19 22 10 12 1026.8 1027.7 0.0
29/05:00am 2.0 -2.7 1.0 93 0.4 SSW 15 20 8 11 1026.7 1027.6 0.0
29/04:30am 2.2 -2.8 1.2 93 0.4 SSW 17 20 9 11 1026.6 1027.5 0.0
29/04:00am 2.1 -3.5 1.1 93 0.4 SSW 20 24 11 13 1026.5 1027.4 0.0
29/03:30am 2.0 -3.4 1.0 93 0.4 SSW 19 20 10 11 1026.6 1027.5 0.0
29/03:11am 2.4 -3.0 1.4 93 0.4 SSW 19 26 10 14 1026.7 1027.6 0.0
29/03:00am 2.8 -3.1 1.8 93 0.4 SSW 22 28 12 15 1026.8 1027.7 0.0
29/02:30am 3.4 -2.4 2.4 93 0.4 SSW 22 32 12 17 1026.9 1027.8 0.0
29/02:00am 3.5 -2.3 2.5 93 0.4 SSW 22 30 12 16 1026.8 1027.7 0.0
29/01:30am 3.5 -2.3 2.5 93 0.4 SSW 22 32 12 17 1026.9 1027.8 0.0
29/01:19am 3.4 -2.0 2.2 92 0.5 SSW 20 28 11 15 1026.9 1027.8 0.0
29/01:16am 3.3 -2.2 2.1 92 0.5 SSW 20 28 11 15 1026.8 1027.7 0.0
29/01:04am 3.5 -3.4 2.3 92 0.5 SSW 28 37 15 20 1026.8 1027.7 0.0
29/01:00am 3.5 -3.1 2.2 91 0.5 SSW 26 35 14 19 1026.8 1027.7 0.0
29/12:30am 3.0 -2.9 1.8 92 0.5 SSW 22 30 12 16 1026.9 1027.8 0.0
29/12:11am 3.0 -3.3 1.7 91 0.5 SSW 24 35 13 19 1027.0 1027.9 0.0
29/12:00am 3.2 -3.1 1.6 89 0.7 SSW 24 33 13 18 1027.1 1028.0 0.0
 
Date/Time
EST
Temp
°C
App
Temp
°C
Dew
Point
°C
Rel
Hum
%
Delta-T
°C
Wind Press
QNH
hPa
Press
MSL
hPa
Rain since
9am
mm
Dir  Spd
km/h
Gust
km/h
Spd
kts
Gust
kts
28/11:30pm 3.6 -2.6 2.0 89 0.7 SSW 24 33 13 18 1027.4 1028.3 0.0
28/11:08pm 3.6 -2.6 2.0 89 0.7 SSW 24 35 13 19 1027.5 1028.4 0.0
28/11:00pm 3.6 -2.6 2.0 89 0.7 SSW 24 35 13 19 1027.6 1028.5 0.0
28/10:30pm 3.0 -3.3 1.4 89 0.7 SSW 24 32 13 17 1027.5 1028.4 0.0
28/10:05pm 2.9 -3.4 1.3 89 0.7 SSW 24 32 13 17 1027.3 1028.1 0.0
28/10:00pm 3.1 -3.2 1.5 89 0.7 SSW 24 32 13 17 1027.3 1028.1 0.0
28/09:30pm 3.3 -2.3 1.5 88 0.7 SSW 20 32 11 17 1027.4 1028.3 0.0
28/09:00pm 3.3 -2.2 1.8 90 0.6 SSW 20 30 11 16 1027.5 1028.4 0.0
28/08:42pm 2.8 -2.1 1.8 93 0.4 SSW 17 24 9 13 1027.4 1028.3 0.0
28/08:30pm 2.2 -2.5 1.2 93 0.4 S 15 19 8 10 1027.4 1028.3 0.0
28/08:00pm 2.9 -1.6 1.9 93 0.4 SSW 15 22 8 12 1027.3 1028.1 0.0
28/07:30pm 3.3 -2.5 2.3 93 0.4 SSW 22 32 12 17 1026.8 1027.7 0.0
28/07:00pm 3.6 -1.8 2.6 93 0.4 SSW 20 32 11 17 1026.8 1027.7 0.0
28/06:30pm 3.4 -1.8 2.2 92 0.5 SSW 19 26 10 14 1026.5 1027.4 0.0
28/06:00pm 3.2 -1.3 1.9 91 0.5 SSW 15 19 8 10 1026.3 1027.1 0.0
28/05:30pm 3.7 -1.2 2.2 90 0.6 SW 17 20 9 11 1025.9 1026.8 0.0
28/05:00pm 4.2 -0.4 1.6 83 1.1 SW 15 20 8 11 1025.6 1026.5 0.0
28/04:30pm 4.9 -0.5 2.4 84 1.1 SSW 20 26 11 14 1025.4 1026.2 0.0
28/04:00pm 5.3 -0.5 2.1 80 1.4 SSW 22 33 12 18 1025.3 1026.1 0.0
28/03:30pm 5.3 -1.0 1.8 78 1.5 SW 24 32 13 17 1025.1 1025.9 0.0
28/03:00pm 5.7 -0.5 2.4 79 1.4 SSW 24 33 13 18 1024.8 1025.7 0.0
28/02:30pm 5.9 -0.1 3.1 82 1.2 SW 24 35 13 19 1024.7 1025.6 0.0
28/02:00pm 5.9 -0.6 2.5 79 1.5 SSW 26 39 14 21 1024.5 1025.3 0.0
28/01:59pm 5.9 -0.6 2.7 80 1.4 SSW 26 35 14 19 1024.5 1025.3 0.0
28/01:30pm 5.6 -1.2 3.1 84 1.1 SW 28 33 15 18 1024.4 1025.2 0.0
28/01:16pm 5.7 -1.6 2.5 80 1.4 SW 30 48 16 26 1024.3 1025.1 0.0
28/01:00pm 6.2 0.3 3.7 84 1.1 SW 24 35 13 19 1024.4 1025.2 0.0
28/12:30pm 5.6 -1.1 3.9 89 0.8 SW 28 41 15 22 1024.6 1025.5 0.0
28/12:00pm 5.0 -1.4 3.2 88 0.8 SSW 26 33 14 18 1024.5 1025.3 0.0
28/11:30am 4.8 -2.3 3.8 93 0.4 SW 30 37 16 20 1024.6 1025.5 0.0
28/11:00am 4.8 -2.3 3.8 93 0.4 SSW 30 39 16 21 1024.7 1025.6 0.0
28/10:30am 4.6 -2.1 3.6 93 0.4 SW 28 37 15 20 1024.8 1025.7 0.0
28/10:21am 4.2 -2.6 3.2 93 0.4 SW 28 37 15 20 1024.8 1025.7 0.0
28/10:00am 4.3 -2.5 3.3 93 0.4 SW 28 41 15 22 1024.6 1025.5 0.0
28/09:43am 4.3 -2.5 3.3 93 0.4 SSW 28 41 15 22 1024.5 1025.3 0.0
28/09:30am 3.7 -3.2 2.7 93 0.4 SSW 28 39 15 21 1024.4 1025.2 0.0
28/09:00am 3.3 -4.6 2.3 93 0.4 SSW 33 43 18 23 1024.1 1024.9 1.4
28/08:30am 3.0 -4.9 2.0 93 0.4 SW 33 41 18 22 1023.6 1024.5 1.4
28/08:00am 3.0 -4.8 2.0 93 0.4 SW 32 43 17 23 1023.2 1024.0 1.4
28/07:30am 2.6 -5.4 1.6 93 0.4 SW 33 44 18 24 1022.9 1023.7 1.4
28/07:00am 2.6 -4.8 1.6 93 0.4 SW 30 41 16 22 1022.7 1023.4 1.4
28/06:55am 2.6 -4.8 1.6 93 0.4 SW 30 41 16 22 1022.7 1023.4 1.4
28/06:30am 2.5 -4.6 1.5 93 0.4 SW 28 35 15 19 1022.2 1023.0 1.4
28/06:09am 2.5 -5.3 1.5 93 0.4 SSW 32 41 17 22 1021.9 1022.7 1.4
28/06:00am 2.5 -5.0 1.5 93 0.4 SSW 30 41 16 22 1021.8 1022.5 1.4
28/05:30am 2.4 -5.4 1.4 93 0.4 SSW 32 43 17 23 1021.3 1022.1 1.4
28/05:00am 2.3 -5.2 1.3 93 0.4 SSW 30 41 16 22 1021.0 1021.8 1.4
28/04:30am 2.3 -5.8 1.3 93 0.4 SW 33 43 18 23 1021.0 1021.8 1.4
28/04:00am 2.3 -5.6 1.3 93 0.4 SSW 32 46 17 25 1021.0 1021.8 1.4
28/03:30am 2.2 -5.7 1.2 93 0.4 SSW 32 41 17 22 1020.8 1021.5 1.4
28/03:00am 2.2 -6.3 1.2 93 0.4 SW 35 46 19 25 1020.8 1021.5 1.4
28/02:30am 2.2 -5.7 1.2 93 0.4 SW 32 43 17 23 1020.6 1021.3 1.4
28/02:00am 2.1 -5.8 1.1 93 0.4 SW 32 43 17 23 1020.4 1021.1 1.4
28/01:30am 2.2 -5.9 1.2 93 0.4 SW 33 44 18 24 1020.2 1021.0 1.4
28/01:00am 2.2 -5.3 1.2 93 0.4 SW 30 44 16 24 1020.2 1021.0 1.4
28/12:30am 2.1 -5.8 1.1 93 0.4 SW 32 43 17 23 1019.9 1020.6 1.4
28/12:18am 2.1 -5.4 1.1 93 0.4 SSW 30 48 16 26 1019.8 1020.5 1.4
28/12:00am 2.0 -5.2 1.0 93 0.4 SW 28 43 15 23 1019.8 1020.5 1.4
 
Date/Time
EST
Temp
°C
App
Temp
°C
Dew
Point
°C
Rel
Hum
%
Delta-T
°C
Wind Press
QNH
hPa
Press
MSL
hPa
Rain since
9am
mm
Dir  Spd
km/h
Gust
km/h
Spd
kts
Gust
kts
27/11:42pm 1.9 -5.6 0.9 93 0.4 SSW 30 52 16 28 1019.7 1020.4 1.4
27/11:30pm 1.8 -5.4 0.8 93 0.4 SSW 28 39 15 21 1019.7 1020.4 1.4
27/11:00pm 1.7 -6.4 0.7 93 0.4 SSW 33 52 18 28 1019.6 1020.3 1.4
27/10:55pm 1.7 -5.9 0.7 93 0.4 SSW 30 52 16 28 1019.6 1020.3 1.4
27/10:30pm 1.5 -5.3 0.5 93 0.4 SSW 26 39 14 21 1019.6 1020.3 1.4
27/10:00pm 1.6 -6.4 0.4 92 0.5 SSW 32 39 17 21 1019.6 1020.3 1.4
27/09:37pm 1.4 -6.6 0.4 93 0.4 SW 32 52 17 28 1019.5 1020.2 1.4
27/09:30pm 1.5 -6.5 0.5 93 0.4 SW 32 44 17 24 1019.5 1020.2 1.4
27/09:09pm 1.4 -5.9 0.2 92 0.5 SW 28 46 15 25 1019.1 1019.9 1.4
27/09:00pm 1.5 -6.7 0.3 92 0.5 SW 33 48 18 26 1019.1 1019.9 1.4
27/08:30pm 1.3 -6.0 0.1 92 0.5 SW 28 46 15 25 1019.1 1019.9 1.4
27/08:08pm 1.2 -6.8 0.2 93 0.4 SW 32 54 17 29 1019.1 1019.9 1.4
27/08:00pm 1.2 -6.5 0.0 92 0.5 SW 30 44 16 24 1019.1 1019.9 1.4
27/07:30pm 1.3 -5.2 0.3 93 0.4 SW 24 35 13 19 1018.9 1019.6 1.4
27/07:00pm 1.3 -5.2 0.3 93 0.4 SW 24 32 13 17 1018.7 1019.4 1.4
27/06:30pm 1.3 -6.0 0.1 92 0.5 SW 28 43 15 23 1018.2 1018.8 1.4
27/06:00pm 1.5 -4.6 0.5 93 0.4 SW 22 28 12 15 1017.7 1018.4 1.4
27/05:30pm 1.3 -5.6 0.3 93 0.4 SW 26 35 14 19 1017.4 1018.1 1.4
27/05:00pm 1.5 -4.2 0.5 93 0.4 SW 20 30 11 16 1016.8 1017.5 1.2
27/04:39pm 1.4 -5.5 0.4 93 0.4 SW 26 37 14 20 1016.6 1017.3 1.2
27/04:30pm 1.3 -6.0 0.3 93 0.4 SW 28 35 15 19 1016.5 1017.2 1.2
27/04:06pm 1.4 -5.5 0.4 93 0.4 SW 26 37 14 20 1016.2 1016.8 1.2
27/04:00pm 1.5 -5.3 0.5 93 0.4 SW 26 37 14 20 1016.1 1016.7 1.2
27/03:30pm 1.6 -5.2 0.6 93 0.4 SW 26 35 14 19 1015.6 1016.3 1.2
27/03:00pm 1.6 -6.4 0.6 93 0.4 SW 32 44 17 24 1015.4 1016.0 1.2
27/02:49pm 1.5 -5.7 0.5 93 0.4 SW 28 39 15 21 1015.4 1016.0 1.2
27/02:38pm 1.3 -5.2 0.3 93 0.4 SW 24 33 13 18 1015.3 1015.9 1.0
27/02:30pm 1.3 -5.2 0.3 93 0.4 SW 24 35 13 19 1015.3 1015.9 1.0
27/02:12pm 1.4 -5.1 0.4 93 0.4 SW 24 35 13 19 1015.1 1015.7 1.0
27/02:00pm 1.1 -5.0 0.1 93 0.4 SW 22 30 12 16 1015.0 1015.6 1.0
27/01:55pm 1.1 -4.7 0.1 93 0.4 SW 20 30 11 16 1015.0 1015.6 1.0
27/01:39pm 1.2 -5.3 0.2 93 0.4 SW 24 30 13 16 1014.9 1015.5 1.0
27/01:30pm 1.3 -5.6 0.3 93 0.4 SW 26 35 14 19 1014.9 1015.5 1.0
27/01:25pm 1.2 -5.7 0.2 93 0.4 SW 26 35 14 19 1014.9 1015.5 1.0
27/01:21pm 1.2 -5.3 0.2 93 0.4 SW 24 33 13 18 1014.9 1015.5 1.0
27/01:00pm 1.1 -5.4 0.1 93 0.4 SW 24 33 13 18 1014.9 1015.5 1.0
27/12:44pm 1.6 -4.9 0.6 93 0.4 SW 24 30 13 16 1015.0 1015.6 0.8
27/12:30pm 1.7 -4.4 0.7 93 0.4 WSW 22 33 12 18 1015.0 1015.6 0.8
27/12:00pm 1.8 -3.9 0.8 93 0.4 SW 20 28 11 15 1015.1 1015.7 0.8
27/11:58am 1.7 -4.0 0.7 93 0.4 SW 20 28 11 15 1015.2 1015.8 0.8
27/11:30am 1.6 -4.1 0.6 93 0.4 WSW 20 26 11 14 1015.4 1016.0 0.8
27/11:25am 1.1 -4.7 0.1 93 0.4 WSW 20 24 11 13 1015.4 1016.0 0.8
27/11:24am 1.1 -4.7 0.1 93 0.4 WSW 20 24 11 13 1015.4 1016.0 0.8
27/11:00am 1.1 -4.7 0.1 93 0.4 WSW 20 24 11 13 1015.5 1016.2 0.8
27/10:30am 1.3 -5.2 0.3 93 0.4 WSW 24 30 13 16 1015.6 1016.3 0.8
27/10:00am 0.9 -4.7 -0.1 93 0.4 SW 19 22 10 12 1015.6 1016.3 0.8
27/09:30am 0.6 -4.3 -0.4 93 0.4 WSW 15 20 8 11 1015.5 1016.2 0.8
27/09:25am 0.7 -4.2 -0.3 93 0.4 WSW 15 19 8 10 1015.5 1016.2 0.8
27/09:00am 0.7 -3.8 -0.3 93 0.4 WSW 13 17 7 9 1015.4 1016.0 1.2
27/08:30am 0.4 -3.4 -0.6 93 0.4 WSW 9 13 5 7 1015.2 1015.8 0.4
27/08:00am 0.2 -3.0 -0.8 93 0.4 W 6 9 3 5 1015.0 1015.6 0.2
27/07:30am 0.1 -3.3 -0.9 93 0.4 WSW 7 9 4 5 1014.9 1015.5 0.2
27/07:00am 0.1 -4.1 -0.9 93 0.4 WSW 11 15 6 8 1015.0 1015.6 0.2
27/06:30am 0.2 -3.6 -0.8 93 0.4 SW 9 13 5 7 1014.7 1015.3 0.0
27/06:29am 0.2 -3.6 -0.8 93 0.4 SW 9 13 5 7 1014.5 1015.2 0.0
27/06:00am 0.2 -4.0 -0.8 93 0.4 SSW 11 15 6 8 1014.2 1014.8 0.0
27/05:30am 0.2 -4.4 -0.8 93 0.4 SSW 13 15 7 8 1014.1 1014.7 0.0
27/05:19am 0.1 -4.5 -0.9 93 0.4 SSW 13 17 7 9 1014.1 1014.7 0.0
27/05:00am 0.1 -4.5 -0.9 93 0.4 SSW 13 15 7 8 1013.9 1014.5 0.0
27/04:30am 0.1 -4.1 -0.9 93 0.4 SSW 11 13 6 7 1013.8 1014.4 0.0
27/04:22am 0.1 -3.7 -0.9 93 0.4 SW 9 15 5 8 1013.9 1014.5 0.0
27/04:17am 0.1 -4.1 -0.9 93 0.4 SSW 11 15 6 8 1013.9 1014.5 0.0
27/04:03am 0.3 -3.9 -0.7 93 0.4 SSW 11 13 6 7 1014.0 1014.6 0.0
27/04:00am 0.3 -3.9 -0.7 93 0.4 SSW 11 13 6 7 1013.9 1014.5 0.0
27/03:30am 0.5 -3.6 -0.5 93 0.4 SSW 11 15 6 8 1014.1 1014.7 0.0
27/03:00am 0.7 -2.5 -0.3 93 0.4 NNW 6 7 3 4 1014.7 1015.3 0.0
27/02:30am 1.2 -0.8 0.0 92 0.5 CALM 0 0 0 0 1014.4 1015.0 0.0

Other Formats:

Comma delimited format used in spreadsheet applications
http://www.bom.gov.au/fwo/IDN60801/IDN60801.95726.axf

JavaScript Object Notation format (JSON) in row-major order
http://www.bom.gov.au/fwo/IDN60801/IDN60801.95726.json